createdAt,value
2022-09-16T00:00:19.055Z,94
2022-09-16T00:01:25.245Z,94
2022-09-16T00:02:31.425Z,94
2022-09-16T00:03:37.629Z,94
2022-09-16T00:04:43.829Z,94
2022-09-16T00:05:50.028Z,94.5
2022-09-16T00:06:56.223Z,95
2022-09-16T00:08:02.467Z,94.5
2022-09-16T00:09:08.629Z,94.5
2022-09-16T00:10:14.867Z,94.5
2022-09-16T00:11:21.032Z,94.5
2022-09-16T00:12:27.231Z,95
2022-09-16T00:13:32.438Z,94.5
2022-09-16T00:14:38.633Z,95
2022-09-16T00:15:44.830Z,95
2022-09-16T00:16:51.037Z,95.5
2022-09-16T00:17:57.232Z,95.5
2022-09-16T00:19:03.426Z,95.5
2022-09-16T00:20:09.639Z,95.5
2022-09-16T00:21:15.829Z,95.5
2022-09-16T00:22:22.041Z,95.5
2022-09-16T00:23:28.235Z,95
2022-09-16T00:24:34.429Z,95.5
2022-09-16T00:25:40.634Z,95
2022-09-16T00:26:46.828Z,95
2022-09-16T00:27:53.036Z,95.5
2022-09-16T00:28:59.233Z,95.5
2022-09-16T00:30:05.446Z,95.5
2022-09-16T00:31:11.656Z,96
2022-09-16T00:32:17.854Z,96
2022-09-16T00:33:24.066Z,96.5
2022-09-16T00:34:30.276Z,96.5
2022-09-16T00:35:36.472Z,96.5
2022-09-16T00:36:42.686Z,96
2022-09-16T00:37:48.894Z,96.5
2022-09-16T00:38:55.094Z,96.5
2022-09-16T00:40:01.294Z,96.5
2022-09-16T00:41:07.509Z,96.5
2022-09-16T00:42:13.706Z,97
2022-09-16T00:43:19.911Z,97
2022-09-16T00:44:26.136Z,96.5
2022-09-16T00:45:32.321Z,96.5
2022-09-16T00:46:38.562Z,96.5
2022-09-16T00:47:44.734Z,97
2022-09-16T00:48:50.956Z,97
2022-09-16T00:49:57.157Z,97.5
2022-09-16T00:51:03.360Z,97.5
2022-09-16T00:52:09.605Z,97.5
2022-09-16T00:53:15.777Z,97
2022-09-16T00:54:22.059Z,97
2022-09-16T00:55:27.332Z,97
2022-09-16T00:56:33.565Z,97
2022-09-16T00:57:39.748Z,97
2022-09-16T00:58:45.952Z,97
2022-09-16T00:59:52.157Z,97
2022-09-16T01:00:58.359Z,97
2022-09-16T01:02:04.557Z,97
2022-09-16T01:03:10.761Z,97
2022-09-16T01:04:16.969Z,97
2022-09-16T01:05:23.174Z,97
2022-09-16T01:06:29.377Z,97
2022-09-16T01:07:35.584Z,97
2022-09-16T01:08:41.839Z,97
2022-09-16T01:09:47.999Z,97
2022-09-16T01:10:54.201Z,97.5
2022-09-16T01:12:00.406Z,97.5
2022-09-16T01:13:06.611Z,97.5
2022-09-16T01:14:12.823Z,97.5
2022-09-16T01:15:19.033Z,98
2022-09-16T01:16:25.237Z,98
2022-09-16T01:17:31.445Z,98
2022-09-16T01:18:37.663Z,98
2022-09-16T01:19:43.858Z,98
2022-09-16T01:20:50.061Z,98
2022-09-16T01:21:56.270Z,98
2022-09-16T01:23:02.548Z,98
2022-09-16T01:24:07.819Z,97.5
2022-09-16T01:25:14.031Z,97.5
2022-09-16T01:26:20.221Z,98
2022-09-16T01:27:26.418Z,98
2022-09-16T01:28:32.619Z,98
2022-09-16T01:29:38.823Z,97.5
2022-09-16T01:30:45.031Z,97.5
2022-09-16T01:31:51.235Z,97
2022-09-16T01:32:57.447Z,97
2022-09-16T01:34:03.657Z,97
2022-09-16T01:35:09.860Z,97
2022-09-16T01:36:16.069Z,97
2022-09-16T01:37:22.284Z,97
2022-09-16T01:38:28.490Z,97
2022-09-16T01:39:34.689Z,97
2022-09-16T01:40:40.893Z,97
2022-09-16T01:41:47.105Z,97
2022-09-16T01:42:53.317Z,97
2022-09-16T01:43:59.528Z,97
2022-09-16T01:45:05.743Z,97
2022-09-16T01:46:11.946Z,97.5
2022-09-16T01:47:18.164Z,97.5
2022-09-16T01:48:24.378Z,97
2022-09-16T01:49:30.598Z,97.5
2022-09-16T01:50:36.806Z,97.5
2022-09-16T01:51:43.091Z,97
2022-09-16T01:52:48.373Z,97.5
2022-09-16T01:53:54.572Z,97.5
2022-09-16T01:55:00.791Z,97.5
2022-09-16T01:56:07.006Z,98
2022-09-16T01:57:13.202Z,98
2022-09-16T01:58:19.413Z,98
2022-09-16T01:59:25.623Z,98
2022-09-16T02:00:31.837Z,98.5
2022-09-16T02:01:38.036Z,98.5
2022-09-16T02:02:44.251Z,98.5
2022-09-16T02:03:50.472Z,99
2022-09-16T02:04:56.695Z,98.5
2022-09-16T02:06:02.882Z,98.5
2022-09-16T02:07:09.089Z,98.5
2022-09-16T02:08:15.300Z,98.5
2022-09-16T02:09:21.510Z,98.5
2022-09-16T02:10:27.723Z,98.5
2022-09-16T02:11:33.928Z,99
2022-09-16T02:12:40.142Z,99
2022-09-16T02:13:46.348Z,99.5
2022-09-16T02:14:52.560Z,99.5
2022-09-16T02:15:58.766Z,99.5
2022-09-16T02:17:04.975Z,99.5
2022-09-16T02:18:11.191Z,99.5
2022-09-16T02:19:17.400Z,99.5
2022-09-16T02:20:23.702Z,99.5
2022-09-16T02:21:28.972Z,99.5
2022-09-16T02:22:35.197Z,99.5
2022-09-16T02:23:41.431Z,99.5
2022-09-16T02:24:47.614Z,99.5
2022-09-16T02:25:53.828Z,99.5
2022-09-16T02:27:00.057Z,99.5
2022-09-16T02:28:06.254Z,99.5
2022-09-16T02:29:12.459Z,99.5
2022-09-16T02:30:18.673Z,99.5
2022-09-16T02:31:24.909Z,99.5
2022-09-16T02:32:31.086Z,99.5
2022-09-16T02:33:37.288Z,99.5
2022-09-16T02:34:43.506Z,99.5
2022-09-16T02:35:49.711Z,99.5
2022-09-16T02:36:55.930Z,99.5
2022-09-16T02:38:02.131Z,99.5
2022-09-16T02:39:08.353Z,99.5
2022-09-16T02:40:14.545Z,99.5
2022-09-16T02:41:20.769Z,99.5
2022-09-16T02:42:26.975Z,99.5
2022-09-16T02:43:33.185Z,99.5
2022-09-16T02:44:39.422Z,99.5
2022-09-16T02:45:45.614Z,99.5
2022-09-16T02:46:51.838Z,99.5
2022-09-16T02:47:58.044Z,99.5
2022-09-16T02:49:04.344Z,99.5
2022-09-16T02:50:09.626Z,99.5
2022-09-16T02:51:15.850Z,99.5
2022-09-16T02:52:22.051Z,99.5
2022-09-16T02:53:28.271Z,99.5
2022-09-16T02:54:34.493Z,99.5
2022-09-16T02:55:40.708Z,99.5
2022-09-16T02:56:46.921Z,99.5
2022-09-16T02:57:53.132Z,99.5
2022-09-16T02:58:59.349Z,99.5
2022-09-16T03:00:05.566Z,99.5
2022-09-16T03:01:11.787Z,99.5
2022-09-16T03:02:18.092Z,99.5
2022-09-16T03:03:24.211Z,99.5
2022-09-16T03:04:30.420Z,99.5
2022-09-16T03:05:36.649Z,99.5
2022-09-16T03:06:42.861Z,99.5
2022-09-16T03:07:49.066Z,99.5
2022-09-16T03:08:55.289Z,99.5
2022-09-16T03:10:01.509Z,99.5
2022-09-16T03:11:07.755Z,99.5
2022-09-16T03:12:13.928Z,99.5
2022-09-16T03:13:20.273Z,99.5
2022-09-16T03:14:26.363Z,99.5
2022-09-16T03:15:32.585Z,99.5
2022-09-16T03:16:38.799Z,99.5
2022-09-16T03:17:45.094Z,99.5
2022-09-16T03:18:50.374Z,99.5
2022-09-16T03:19:56.599Z,99.5
2022-09-16T03:21:02.812Z,99.5
2022-09-16T03:22:09.037Z,99.5
2022-09-16T03:23:15.268Z,99.5
2022-09-16T03:24:21.619Z,99.5
2022-09-16T03:25:27.678Z,99.5
2022-09-16T03:26:33.887Z,99.5
2022-09-16T03:27:40.104Z,99.5
2022-09-16T03:28:46.415Z,99.5
2022-09-16T03:29:52.670Z,99.5
2022-09-16T03:30:58.742Z,99.5
2022-09-16T03:32:04.960Z,99.5
2022-09-16T03:33:11.169Z,99.5
2022-09-16T03:34:17.387Z,99.5
2022-09-16T03:35:23.601Z,99.5
2022-09-16T03:36:29.828Z,99.5
2022-09-16T03:37:36.088Z,99.5
2022-09-16T03:38:42.262Z,99.5
2022-09-16T03:39:48.468Z,99
2022-09-16T03:40:54.685Z,99
2022-09-16T03:42:00.889Z,99
2022-09-16T03:43:07.155Z,99
2022-09-16T03:44:13.336Z,99
2022-09-16T03:45:19.648Z,99.5
2022-09-16T03:46:25.894Z,99
2022-09-16T03:47:31.115Z,99.5
2022-09-16T03:48:37.327Z,99
2022-09-16T03:49:43.681Z,99.5
2022-09-16T03:50:49.801Z,99.5
2022-09-16T03:51:55.986Z,99.5
2022-09-16T03:53:02.190Z,99.5
2022-09-16T03:54:08.408Z,99.5
2022-09-16T03:55:14.614Z,99
2022-09-16T03:56:20.824Z,99
2022-09-16T03:57:27.091Z,99
2022-09-16T03:58:33.367Z,99
2022-09-16T03:59:39.468Z,99
2022-09-16T04:00:45.759Z,98.5
2022-09-16T04:01:52.001Z,98.5
2022-09-16T04:02:58.216Z,99
2022-09-16T04:04:04.328Z,99
2022-09-16T04:05:10.536Z,98.5
2022-09-16T04:06:16.773Z,98.5
2022-09-16T04:07:23.025Z,98.5
2022-09-16T04:08:29.199Z,98.5
2022-09-16T04:09:35.436Z,98.5
2022-09-16T04:10:41.717Z,98.5
2022-09-16T04:11:47.887Z,98.5
2022-09-16T04:12:54.052Z,98.5
2022-09-16T04:14:00.269Z,98
2022-09-16T04:15:06.560Z,98
2022-09-16T04:16:11.839Z,98
2022-09-16T04:17:18.062Z,98
2022-09-16T04:18:24.323Z,97.5
2022-09-16T04:19:30.485Z,97.5
2022-09-16T04:20:36.795Z,97.5
2022-09-16T04:21:43.060Z,97
2022-09-16T04:22:49.173Z,97.5
2022-09-16T04:23:55.343Z,97.5
2022-09-16T04:25:01.563Z,97.5
2022-09-16T04:26:07.768Z,97
2022-09-16T04:27:13.987Z,97
2022-09-16T04:28:20.205Z,97
2022-09-16T04:29:26.409Z,97
2022-09-16T04:30:32.635Z,97
2022-09-16T04:31:38.834Z,96.5
2022-09-16T04:32:45.035Z,96.5
2022-09-16T04:33:51.262Z,96
2022-09-16T04:34:57.489Z,96
2022-09-16T04:36:03.706Z,96
2022-09-16T04:37:09.893Z,96
2022-09-16T04:38:16.110Z,96
2022-09-16T04:39:22.322Z,96
2022-09-16T04:40:28.523Z,96
2022-09-16T04:41:34.741Z,96
2022-09-16T04:42:40.951Z,96
2022-09-16T04:43:47.248Z,96
2022-09-16T04:44:52.518Z,96
2022-09-16T04:45:58.733Z,96
2022-09-16T04:47:04.964Z,96
2022-09-16T04:48:11.198Z,96
2022-09-16T04:49:17.388Z,96
2022-09-16T04:50:23.590Z,96
2022-09-16T04:51:29.811Z,96
2022-09-16T04:52:36.028Z,96
2022-09-16T04:53:42.225Z,96
2022-09-16T04:54:48.457Z,96
2022-09-16T04:55:54.659Z,96
2022-09-16T04:57:00.868Z,96
2022-09-16T04:58:07.109Z,95.5
2022-09-16T04:59:13.293Z,95.5
2022-09-16T05:00:19.512Z,95
2022-09-16T05:01:25.711Z,94.5
2022-09-16T05:02:31.921Z,94.5
2022-09-16T05:03:38.132Z,94.5
2022-09-16T05:04:44.348Z,94.5
2022-09-16T05:05:50.550Z,94
2022-09-16T05:06:56.746Z,94
2022-09-16T05:08:02.967Z,94
2022-09-16T05:09:09.180Z,94
2022-09-16T05:10:15.374Z,94
2022-09-16T05:11:21.606Z,93
2022-09-16T05:12:27.866Z,93
2022-09-16T05:13:33.130Z,93
2022-09-16T05:14:39.356Z,92.5
2022-09-16T05:15:45.555Z,93
2022-09-16T05:16:51.754Z,92.5
2022-09-16T05:17:57.972Z,92.5
2022-09-16T05:19:04.177Z,92
2022-09-16T05:20:10.387Z,92
2022-09-16T05:21:16.605Z,92
2022-09-16T05:22:22.790Z,92
2022-09-16T05:23:28.982Z,92
2022-09-16T05:24:35.190Z,91.5
2022-09-16T05:25:41.399Z,91.5
2022-09-16T05:26:47.601Z,91
2022-09-16T05:27:53.803Z,91
2022-09-16T05:29:00.016Z,91
2022-09-16T05:30:06.220Z,91
2022-09-16T05:31:12.431Z,90.5
2022-09-16T05:32:18.622Z,90.5
2022-09-16T05:33:24.839Z,90.5
2022-09-16T05:34:31.026Z,90
2022-09-16T05:35:37.218Z,90
2022-09-16T05:36:43.434Z,90
2022-09-16T05:37:49.612Z,89
2022-09-16T05:38:54.840Z,89
2022-09-16T05:40:01.035Z,89.5
2022-09-16T05:41:07.243Z,89
2022-09-16T05:42:12.436Z,89
2022-09-16T05:43:18.657Z,89
2022-09-16T05:44:24.827Z,88.5
2022-09-16T05:45:31.036Z,88
2022-09-16T05:46:37.241Z,88
2022-09-16T05:47:43.444Z,88
2022-09-16T05:48:49.677Z,88
2022-09-16T05:49:55.839Z,87.5
2022-09-16T05:51:02.033Z,88
2022-09-16T05:52:08.224Z,87.5
2022-09-16T05:53:14.424Z,87.5
2022-09-16T05:54:20.625Z,88.5
2022-09-16T05:55:26.838Z,87
2022-09-16T05:56:32.017Z,87
2022-09-16T05:57:38.208Z,87.5
2022-09-16T05:58:44.400Z,87.5
2022-09-16T05:59:50.595Z,87.5
2022-09-16T06:00:56.796Z,87
2022-09-16T06:02:02.983Z,87
2022-09-16T06:03:09.172Z,87
2022-09-16T06:04:15.365Z,86.5
2022-09-16T06:05:21.560Z,87
2022-09-16T06:06:27.741Z,86
2022-09-16T06:07:33.945Z,86.5
2022-09-16T06:08:40.135Z,86
2022-09-16T06:09:46.319Z,86
2022-09-16T06:10:51.536Z,86.5
2022-09-16T06:11:57.727Z,86
2022-09-16T06:13:03.913Z,86.5
2022-09-16T06:14:10.092Z,86
2022-09-16T06:15:16.293Z,86
2022-09-16T06:16:22.479Z,85
2022-09-16T06:17:28.677Z,85.5
2022-09-16T06:18:34.852Z,85
2022-09-16T06:19:41.050Z,85
2022-09-16T06:20:47.235Z,84.5
2022-09-16T06:21:53.426Z,84.5
2022-09-16T06:22:59.607Z,84
2022-09-16T06:24:05.803Z,84
2022-09-16T06:25:10.997Z,83.5
2022-09-16T06:26:17.165Z,83.5
2022-09-16T06:27:23.361Z,81.5
2022-09-16T06:28:29.527Z,81.5
2022-09-16T06:29:35.697Z,83
2022-09-16T06:30:41.871Z,82
2022-09-16T06:31:47.074Z,83
2022-09-16T06:32:53.240Z,83
2022-09-16T07:26:54.540Z,73
2022-09-16T07:27:59.840Z,73.5
2022-09-16T07:29:05.918Z,73
2022-09-16T07:30:11.900Z,74.5
2022-09-16T07:31:18.096Z,73
2022-09-16T07:32:24.031Z,74.5
2022-09-16T07:33:30.228Z,73
2022-09-16T07:34:36.294Z,71.5
2022-09-16T07:35:42.257Z,71
2022-09-16T07:36:48.388Z,72.5
2022-09-16T07:37:54.414Z,73
2022-09-16T07:39:00.517Z,74
2022-09-16T07:40:06.577Z,74
2022-09-16T07:41:12.662Z,75
2022-09-16T07:42:18.783Z,75
2022-09-16T07:43:24.841Z,75.5
2022-09-16T07:44:30.995Z,75.5
2022-09-16T07:45:37.027Z,73.5
2022-09-16T07:46:43.134Z,71.5
2022-09-16T07:47:49.196Z,71.5
2022-09-16T07:48:55.286Z,73
2022-09-16T07:50:01.436Z,73.5
2022-09-16T07:51:07.488Z,73.5
2022-09-16T07:52:13.548Z,74
2022-09-16T07:53:19.665Z,73.5
2022-09-16T07:54:25.813Z,74
2022-09-16T07:55:31.938Z,73.5
2022-09-16T07:56:38.118Z,73.5
2022-09-16T07:57:43.263Z,73
2022-09-16T07:58:49.382Z,73
2022-09-16T07:59:55.501Z,74
2022-09-16T08:01:01.671Z,73.5
2022-09-16T08:02:07.883Z,74
2022-09-16T08:03:13.845Z,73
2022-09-16T08:04:20.098Z,74
2022-09-16T08:05:26.063Z,74
2022-09-16T08:06:32.322Z,74.5
2022-09-16T08:07:38.349Z,74
2022-09-16T08:08:44.539Z,75
2022-09-16T08:09:50.597Z,73.5
2022-09-16T08:10:56.683Z,73
2022-09-16T08:12:02.816Z,72.5
2022-09-16T08:13:07.969Z,73.5
2022-09-16T08:14:14.259Z,73.5
2022-09-16T08:15:20.231Z,73.5
2022-09-16T08:16:26.461Z,73.5
2022-09-16T08:17:32.587Z,73
2022-09-16T08:18:38.631Z,73.5
2022-09-16T08:19:44.790Z,73
2022-09-16T08:20:50.011Z,72
2022-09-16T08:21:55.072Z,71.5
2022-09-16T08:23:01.216Z,72.5
2022-09-16T08:24:07.469Z,72
2022-09-16T08:25:13.606Z,72
2022-09-16T08:26:19.637Z,72
2022-09-16T08:27:25.843Z,72
2022-09-16T08:28:31.921Z,71
2022-09-16T08:29:38.012Z,72.5
2022-09-16T08:30:44.246Z,70.5
2022-09-16T08:31:50.343Z,70
2022-09-16T08:32:56.491Z,70
2022-09-16T08:34:02.564Z,70.5
2022-09-16T08:35:08.673Z,69.5
2022-09-16T08:36:13.841Z,69.5
2022-09-16T08:37:20.001Z,69.5
2022-09-16T08:38:26.117Z,70.5
2022-09-16T08:39:32.285Z,71
2022-09-16T08:40:38.437Z,69
2022-09-16T08:41:44.463Z,67
2022-09-16T08:42:50.655Z,67
2022-09-16T08:43:56.835Z,67
2022-09-16T08:45:02.837Z,67
2022-09-16T08:46:09.016Z,67
2022-09-16T08:47:15.152Z,66.5
2022-09-16T08:48:21.311Z,66.5
2022-09-16T08:49:27.469Z,67.5
2022-09-16T08:50:33.568Z,67
2022-09-16T08:51:39.613Z,67.5
2022-09-16T08:52:45.687Z,66.5
2022-09-16T08:53:51.811Z,65.5
2022-09-16T08:54:57.916Z,64.5
2022-09-16T08:56:04.066Z,64
2022-09-16T08:57:10.149Z,64.5
2022-09-16T08:58:16.283Z,63.5
2022-09-16T08:59:22.525Z,65.5
2022-09-16T09:00:28.576Z,64.5
2022-09-16T09:01:34.741Z,63.5
2022-09-16T09:02:40.711Z,65
2022-09-16T09:03:46.819Z,66.5
2022-09-16T09:04:52.927Z,66
2022-09-16T09:05:59.089Z,66.5
2022-09-16T09:07:05.187Z,66.5
2022-09-16T09:08:11.268Z,66
2022-09-16T09:09:17.378Z,65.5
2022-09-16T09:10:23.571Z,65.5
2022-09-16T09:11:29.728Z,64
2022-09-16T09:12:35.860Z,64
2022-09-16T09:13:41.859Z,64.5
2022-09-16T09:14:48.037Z,64.5
2022-09-16T09:15:54.144Z,64
2022-09-16T09:17:00.270Z,64
2022-09-16T09:18:05.458Z,64
2022-09-16T09:19:11.617Z,64.5
2022-09-16T09:20:17.673Z,65
2022-09-16T09:21:23.892Z,64.5
2022-09-16T09:22:29.894Z,65.5
2022-09-16T09:23:36.110Z,64
2022-09-16T09:24:42.132Z,63.5
2022-09-16T09:25:48.226Z,64.5
2022-09-16T09:26:54.346Z,64
2022-09-16T09:28:00.480Z,64.5
2022-09-16T09:29:06.574Z,65
2022-09-16T09:30:12.822Z,65
2022-09-16T09:31:18.804Z,64
2022-09-16T09:32:25.033Z,64
2022-09-16T09:33:31.074Z,64.5
2022-09-16T09:34:37.164Z,61.5
2022-09-16T09:35:43.296Z,57
2022-09-16T09:36:49.437Z,57.5
2022-09-16T09:37:55.556Z,56.5
2022-09-16T09:39:01.594Z,56
2022-09-16T09:40:07.718Z,56
2022-09-16T09:41:13.886Z,54
2022-09-16T09:42:19.927Z,54
2022-09-16T09:43:26.000Z,55
2022-09-16T09:44:32.140Z,55.5
2022-09-16T09:45:38.362Z,54
2022-09-16T09:46:44.503Z,55.5
2022-09-16T09:47:50.568Z,54.5
2022-09-16T09:48:56.721Z,54
2022-09-16T09:50:02.893Z,56.5
2022-09-16T09:51:09.057Z,56
2022-09-16T09:52:15.247Z,58
2022-09-16T09:53:21.439Z,57
2022-09-16T09:54:27.600Z,56.5
2022-09-16T09:55:33.754Z,56.5
2022-09-16T09:56:39.994Z,54
2022-09-16T09:57:46.084Z,57.5
2022-09-16T09:58:52.240Z,57
2022-09-16T09:59:58.588Z,58
2022-09-16T10:01:03.804Z,58
2022-09-16T10:02:09.874Z,58.5
2022-09-16T10:03:15.963Z,59
2022-09-16T10:04:22.050Z,58.5
2022-09-16T10:05:28.164Z,59
2022-09-16T10:06:34.339Z,57.5
2022-09-16T10:07:40.364Z,56
2022-09-16T10:08:46.455Z,55.5
2022-09-16T10:09:52.584Z,54.5
2022-09-16T10:10:58.655Z,52.5
2022-09-16T10:12:04.828Z,51.5
2022-09-16T10:13:10.860Z,51.5
2022-09-16T10:14:17.005Z,52
2022-09-16T10:15:23.119Z,52.5
2022-09-16T10:16:29.213Z,52.5
2022-09-16T10:17:35.348Z,53
2022-09-16T10:18:41.413Z,57
2022-09-16T10:19:47.463Z,57
2022-09-16T10:20:53.606Z,56.5
2022-09-16T10:21:59.665Z,56.5
2022-09-16T10:23:05.842Z,54
2022-09-16T10:24:11.877Z,54
2022-09-16T10:25:18.018Z,52.5
2022-09-16T10:26:24.127Z,51
2022-09-16T10:27:30.191Z,55.5
2022-09-16T10:28:36.392Z,57
2022-09-16T10:29:41.552Z,56.5
2022-09-16T10:30:47.656Z,54.5
2022-09-16T10:31:53.764Z,57
2022-09-16T10:32:59.883Z,56.5
2022-09-16T10:34:05.976Z,57
2022-09-16T10:35:12.071Z,55
2022-09-16T10:36:18.177Z,54
2022-09-16T10:37:24.276Z,54
2022-09-16T10:38:30.426Z,53
2022-09-16T10:39:36.487Z,53
2022-09-16T10:40:42.603Z,51.5
2022-09-16T10:41:48.683Z,51
2022-09-16T10:42:54.815Z,51
2022-09-16T10:44:00.927Z,53
2022-09-16T10:45:07.070Z,54
2022-09-16T10:46:13.093Z,54
2022-09-16T10:47:19.193Z,54.5
2022-09-16T10:48:25.305Z,56.5
2022-09-16T10:49:31.414Z,55.5
2022-09-16T10:50:37.510Z,53
2022-09-16T10:51:43.627Z,51
2022-09-16T10:52:49.735Z,51
2022-09-16T10:53:55.864Z,50.5
2022-09-16T10:55:01.968Z,50
2022-09-16T10:56:08.036Z,49.5
2022-09-16T10:57:14.216Z,51.5
2022-09-16T10:58:19.393Z,52
2022-09-16T10:59:25.555Z,53.5
2022-09-16T11:00:31.616Z,54.5
2022-09-16T11:01:37.709Z,53.5
2022-09-16T11:02:43.824Z,52.5
2022-09-16T11:03:49.953Z,51
2022-09-16T11:04:56.042Z,50.5
2022-09-16T11:06:02.160Z,52.5
2022-09-16T11:07:08.263Z,54
2022-09-16T11:08:14.401Z,55
2022-09-16T11:09:20.488Z,54.5
2022-09-16T11:10:26.603Z,51.5
2022-09-16T11:11:32.709Z,52.5
2022-09-16T11:12:38.837Z,52
2022-09-16T11:13:44.928Z,48.5
2022-09-16T11:14:51.068Z,48.5
2022-09-16T11:15:57.246Z,48
2022-09-16T11:17:03.283Z,48
2022-09-16T11:18:09.370Z,46.5
2022-09-16T11:19:15.552Z,48
2022-09-16T11:20:21.584Z,48
2022-09-16T11:21:27.728Z,49
2022-09-16T11:22:33.801Z,47
2022-09-16T11:23:39.904Z,47
2022-09-16T11:24:45.996Z,47
2022-09-16T11:25:52.188Z,46.5
2022-09-16T11:26:57.368Z,46
2022-09-16T11:28:03.460Z,45
2022-09-16T11:29:09.651Z,46
2022-09-16T11:30:15.669Z,45
2022-09-16T11:31:21.767Z,44
2022-09-16T11:32:27.856Z,45.5
2022-09-16T11:33:33.964Z,43.5
2022-09-16T11:34:40.061Z,44
2022-09-16T11:35:46.166Z,43
2022-09-16T11:36:52.290Z,44
2022-09-16T11:37:58.357Z,44
2022-09-16T11:39:04.464Z,44.5
2022-09-16T11:40:10.524Z,45
2022-09-16T11:41:16.607Z,44
2022-09-16T11:42:22.732Z,44
2022-09-16T11:43:28.778Z,45.5
2022-09-16T11:44:34.935Z,46
2022-09-16T11:45:40.972Z,46.5
2022-09-16T11:46:47.042Z,48.5
2022-09-16T11:47:53.118Z,50
2022-09-16T11:48:59.219Z,47.5
2022-09-16T11:50:05.296Z,47.5
2022-09-16T11:51:11.481Z,46
2022-09-16T11:52:17.477Z,45
2022-09-16T11:53:23.629Z,45
2022-09-16T11:54:29.798Z,45
2022-09-16T11:55:35.915Z,45
2022-09-16T11:56:42.073Z,44
2022-09-16T11:57:48.221Z,45.5
2022-09-16T11:58:54.386Z,45.5
2022-09-16T12:00:00.585Z,52.5
2022-09-16T12:01:06.705Z,57.5
2022-09-16T12:02:12.883Z,60
2022-09-16T12:03:19.034Z,62
2022-09-16T12:04:25.237Z,61.5
2022-09-16T12:05:31.443Z,61.5
2022-09-16T12:06:36.541Z,61.5
2022-09-16T12:07:42.646Z,62
2022-09-16T12:08:48.737Z,62
2022-09-16T12:09:54.845Z,64.5
2022-09-16T12:11:00.958Z,64
2022-09-16T12:12:07.045Z,64
2022-09-16T12:13:13.150Z,63.5
2022-09-16T12:14:19.259Z,62.5
2022-09-16T12:15:25.365Z,59
2022-09-16T12:16:31.472Z,53.5
2022-09-16T12:17:37.608Z,53
2022-09-16T12:18:43.683Z,50.5
2022-09-16T12:19:49.807Z,48
2022-09-16T12:20:55.888Z,51.5
2022-09-16T12:22:02.007Z,50
2022-09-16T12:23:08.188Z,51
2022-09-16T12:24:14.270Z,52.5
2022-09-16T12:25:20.311Z,52
2022-09-16T12:26:26.416Z,52
2022-09-16T12:27:32.515Z,53.5
2022-09-16T12:28:38.644Z,53.5
2022-09-16T12:29:44.737Z,55.5
2022-09-16T12:30:50.866Z,54
2022-09-16T12:31:56.971Z,52
2022-09-16T12:33:03.112Z,51
2022-09-16T12:34:09.259Z,52.5
2022-09-16T12:35:14.447Z,50
2022-09-16T12:36:20.563Z,50
2022-09-16T12:37:26.667Z,51
2022-09-16T12:38:32.780Z,52
2022-09-16T12:39:38.895Z,50.5
2022-09-16T12:40:44.990Z,48
2022-09-16T12:41:51.082Z,47
2022-09-16T12:42:57.186Z,50
2022-09-16T12:44:03.326Z,47.5
2022-09-16T12:45:09.380Z,50.5
2022-09-16T12:46:15.479Z,49.5
2022-09-16T12:47:21.603Z,49
2022-09-16T12:48:27.690Z,48.5
2022-09-16T12:49:33.826Z,49
2022-09-16T12:50:39.871Z,49.5
2022-09-16T12:51:46.017Z,49
2022-09-16T12:52:52.194Z,50
2022-09-16T12:53:58.179Z,48
2022-09-16T12:55:04.273Z,47.5
2022-09-16T12:56:10.366Z,47.5
2022-09-16T12:57:16.525Z,46
2022-09-16T12:58:22.567Z,48
2022-09-16T12:59:28.691Z,47
2022-09-16T13:00:34.778Z,47.5
2022-09-16T13:01:40.823Z,47.5
2022-09-16T13:02:46.993Z,46.5
2022-09-16T13:03:53.172Z,47
2022-09-16T13:04:59.313Z,47.5
2022-09-16T13:06:05.507Z,46.5
2022-09-16T13:07:11.682Z,45
2022-09-16T13:08:17.796Z,46
2022-09-16T13:09:23.971Z,46
2022-09-16T13:10:30.112Z,46
2022-09-16T13:11:36.269Z,44
2022-09-16T13:12:42.436Z,43
2022-09-16T13:13:48.602Z,43.5
2022-09-16T13:14:54.747Z,41.5
2022-09-16T13:16:00.899Z,43.5
2022-09-16T13:17:07.198Z,43
2022-09-16T13:18:12.420Z,44
2022-09-16T13:19:18.485Z,46
2022-09-16T13:20:24.614Z,46.5
2022-09-16T13:21:30.643Z,45.5
2022-09-16T13:22:36.730Z,46
2022-09-16T13:23:42.819Z,46
2022-09-16T13:24:48.900Z,44
2022-09-16T13:25:54.978Z,44
2022-09-16T13:27:01.064Z,45
2022-09-16T13:28:07.156Z,45.5
2022-09-16T13:29:13.228Z,47
2022-09-16T13:30:19.310Z,48.5
2022-09-16T13:31:25.385Z,49
2022-09-16T13:32:31.465Z,49.5
2022-09-16T13:33:37.572Z,51.5
2022-09-16T13:34:43.641Z,52
2022-09-16T13:35:49.737Z,52
2022-09-16T13:36:55.815Z,51.5
2022-09-16T13:38:01.908Z,51
2022-09-16T13:39:08.057Z,51.5
2022-09-16T13:40:14.095Z,52
2022-09-16T13:41:20.188Z,51
2022-09-16T13:42:26.288Z,51
2022-09-16T13:43:32.397Z,52
2022-09-16T13:44:38.474Z,50
2022-09-16T13:45:44.663Z,50
2022-09-16T13:46:50.828Z,47
2022-09-16T13:47:56.013Z,47
2022-09-16T13:49:02.118Z,46
2022-09-16T13:50:08.212Z,45
2022-09-16T13:51:14.316Z,43.5
2022-09-16T13:52:20.407Z,44
2022-09-16T13:53:26.561Z,42.5
2022-09-16T13:54:32.598Z,42
2022-09-16T13:55:38.701Z,41
2022-09-16T13:56:44.803Z,41.5
2022-09-16T13:57:50.885Z,41.5
2022-09-16T13:58:56.981Z,42
2022-09-16T14:00:03.111Z,41.5
2022-09-16T14:01:09.201Z,42
2022-09-16T14:02:15.268Z,43
2022-09-16T14:03:21.364Z,43.5
2022-09-16T14:04:27.476Z,43.5
2022-09-16T14:05:33.650Z,42.5
2022-09-16T14:06:39.687Z,43
2022-09-16T14:07:45.779Z,43.5
2022-09-16T14:08:51.870Z,44
2022-09-16T14:09:58.066Z,43.5
2022-09-16T14:11:04.073Z,43
2022-09-16T14:12:10.285Z,43.5
2022-09-16T14:13:16.410Z,43.5
2022-09-16T14:14:22.503Z,44
2022-09-16T14:15:28.657Z,44
2022-09-16T14:16:33.816Z,43.5
2022-09-16T14:17:39.955Z,44
2022-09-16T14:18:45.959Z,44.5
2022-09-16T14:19:52.175Z,45.5
2022-09-16T14:20:58.144Z,47
2022-09-16T14:22:04.395Z,46
2022-09-16T14:23:10.342Z,46
2022-09-16T14:24:16.574Z,46
2022-09-16T14:25:22.597Z,45
2022-09-16T14:26:28.644Z,44.5
2022-09-16T14:27:34.743Z,43.5
2022-09-16T14:28:40.897Z,44.5
2022-09-16T14:29:47.949Z,45
2022-09-16T14:30:53.075Z,42.5
2022-09-16T14:31:59.140Z,42.5
2022-09-16T14:33:05.250Z,43.5
2022-09-16T14:34:11.333Z,43.5
2022-09-16T14:35:17.536Z,44
2022-09-16T14:36:23.631Z,45
2022-09-16T14:37:29.756Z,45
2022-09-16T14:38:35.838Z,45
2022-09-16T14:39:41.930Z,44
2022-09-16T14:40:48.047Z,44
2022-09-16T14:41:54.002Z,45
2022-09-16T14:43:00.138Z,44.5
2022-09-16T14:44:06.327Z,44
2022-09-16T14:45:11.631Z,44.5
2022-09-16T14:46:17.662Z,44
2022-09-16T14:47:23.778Z,43.5
2022-09-16T14:48:29.904Z,43
2022-09-16T14:49:35.956Z,43.5
2022-09-16T14:50:42.124Z,44
2022-09-16T14:51:48.220Z,43.5
2022-09-16T14:52:54.274Z,43.5
2022-09-16T14:54:00.384Z,44
2022-09-16T14:55:06.546Z,43.5
2022-09-16T14:56:12.664Z,43.5
2022-09-16T14:57:18.600Z,44
2022-09-16T14:58:24.867Z,45
2022-09-16T14:59:30.812Z,45
2022-09-16T15:00:36.939Z,45
2022-09-16T15:01:43.182Z,44.5
2022-09-16T15:02:49.269Z,45
2022-09-16T15:03:55.245Z,43
2022-09-16T15:05:01.503Z,43.5
2022-09-16T15:06:07.599Z,43.5
2022-09-16T15:07:13.691Z,44
2022-09-16T15:08:19.661Z,44.5
2022-09-16T15:09:25.763Z,45
2022-09-16T15:10:31.860Z,44
2022-09-16T15:11:38.098Z,45
2022-09-16T15:12:44.288Z,45.5
2022-09-16T15:13:50.452Z,45
2022-09-16T15:14:55.497Z,46.5
2022-09-16T15:16:01.756Z,47.5
2022-09-16T15:17:07.840Z,48.5
2022-09-16T15:18:13.952Z,48
2022-09-16T15:19:20.067Z,47.5
2022-09-16T15:20:26.159Z,47.5
2022-09-16T15:21:32.338Z,46.5
2022-09-16T15:22:38.406Z,47
2022-09-16T15:23:44.522Z,47
2022-09-16T15:24:50.556Z,47.5
2022-09-16T15:25:56.687Z,48
2022-09-16T15:28:08.832Z,47
2022-09-16T15:29:14.947Z,47.5
2022-09-16T15:30:21.038Z,47.5
2022-09-16T15:31:27.002Z,46.5
2022-09-16T15:32:33.223Z,46
2022-09-16T15:33:39.518Z,45
2022-09-16T15:34:45.481Z,46.5
2022-09-16T15:35:51.549Z,46
2022-09-16T15:36:57.649Z,46
2022-09-16T15:38:03.608Z,46
2022-09-16T15:39:09.889Z,46.5
2022-09-16T15:40:15.973Z,46.5
2022-09-16T15:41:22.089Z,47
2022-09-16T15:42:28.301Z,46
2022-09-16T15:43:33.519Z,44.5
2022-09-16T15:44:38.790Z,42
2022-09-16T15:45:43.787Z,41.5
2022-09-16T15:46:50.030Z,41.5
2022-09-16T15:49:02.286Z,41.5
2022-09-16T15:50:08.383Z,42.5
2022-09-16T15:51:14.477Z,42.5
2022-09-16T15:52:20.513Z,42.5
2022-09-16T15:53:26.673Z,42.5
2022-09-16T15:54:32.771Z,42.5
2022-09-16T15:55:38.905Z,43
2022-09-16T15:56:44.985Z,43.5
2022-09-16T15:57:51.139Z,43.5
2022-09-16T15:58:57.251Z,44
2022-09-16T16:00:03.360Z,44.5
2022-09-16T16:01:09.352Z,45.5
2022-09-16T16:02:15.582Z,45.5
2022-09-16T16:03:21.723Z,46
2022-09-16T16:04:27.867Z,46.5
2022-09-16T16:05:33.997Z,46.5